sensor_id;sensor_type;location;lat;lon;timestamp;P1;durP1;ratioP1;P2;durP2;ratioP2
43086;SDS011;28708;52.224;6.924;2022-12-29T00:02:16;3.47;;;2.00;;
43086;SDS011;28708;52.224;6.924;2022-12-29T00:04:42;4.47;;;1.70;;
43086;SDS011;28708;52.224;6.924;2022-12-29T00:07:07;3.77;;;1.90;;
43086;SDS011;28708;52.224;6.924;2022-12-29T00:09:33;3.03;;;1.70;;
43086;SDS011;28708;52.224;6.924;2022-12-29T00:12:00;3.53;;;1.90;;
43086;SDS011;28708;52.224;6.924;2022-12-29T00:14:26;3.30;;;2.00;;
43086;SDS011;28708;52.224;6.924;2022-12-29T00:17:11;4.07;;;1.63;;
43086;SDS011;28708;52.224;6.924;2022-12-29T00:19:37;2.80;;;1.77;;
43086;SDS011;28708;52.224;6.924;2022-12-29T00:22:22;2.90;;;1.50;;
43086;SDS011;28708;52.224;6.924;2022-12-29T00:25:07;6.67;;;2.50;;
43086;SDS011;28708;52.224;6.924;2022-12-29T00:27:53;4.40;;;1.70;;
43086;SDS011;28708;52.224;6.924;2022-12-29T00:30:39;4.23;;;1.80;;
43086;SDS011;28708;52.224;6.924;2022-12-29T00:33:28;3.37;;;1.97;;
43086;SDS011;28708;52.224;6.924;2022-12-29T00:36:28;3.60;;;1.70;;
43086;SDS011;28708;52.224;6.924;2022-12-29T00:39:06;3.33;;;2.07;;
43086;SDS011;28708;52.224;6.924;2022-12-29T00:41:54;2.73;;;1.73;;
43086;SDS011;28708;52.224;6.924;2022-12-29T00:44:39;3.13;;;2.00;;
43086;SDS011;28708;52.224;6.924;2022-12-29T00:47:04;3.73;;;1.80;;
43086;SDS011;28708;52.224;6.924;2022-12-29T00:49:31;2.93;;;1.70;;
43086;SDS011;28708;52.224;6.924;2022-12-29T00:52:04;2.50;;;1.77;;
43086;SDS011;28708;52.224;6.924;2022-12-29T00:54:33;2.30;;;1.57;;
43086;SDS011;28708;52.224;6.924;2022-12-29T00:57:00;2.90;;;1.77;;
43086;SDS011;28708;52.224;6.924;2022-12-29T00:59:26;2.30;;;1.73;;
43086;SDS011;28708;52.224;6.924;2022-12-29T01:01:52;3.30;;;1.67;;
43086;SDS011;28708;52.224;6.924;2022-12-29T01:04:20;4.17;;;1.60;;
43086;SDS011;28708;52.224;6.924;2022-12-29T01:06:47;5.73;;;1.53;;
43086;SDS011;28708;52.224;6.924;2022-12-29T01:09:14;2.93;;;1.57;;
43086;SDS011;28708;52.224;6.924;2022-12-29T01:11:59;3.07;;;1.53;;
43086;SDS011;28708;52.224;6.924;2022-12-29T01:14:25;3.70;;;1.80;;
43086;SDS011;28708;52.224;6.924;2022-12-29T01:16:51;2.37;;;1.33;;
43086;SDS011;28708;52.224;6.924;2022-12-29T01:19:18;2.63;;;1.30;;
43086;SDS011;28708;52.224;6.924;2022-12-29T01:21:44;2.03;;;1.30;;
43086;SDS011;28708;52.224;6.924;2022-12-29T01:24:11;2.10;;;1.40;;
43086;SDS011;28708;52.224;6.924;2022-12-29T01:26:37;2.23;;;1.20;;
43086;SDS011;28708;52.224;6.924;2022-12-29T01:29:02;2.53;;;1.20;;
43086;SDS011;28708;52.224;6.924;2022-12-29T01:31:28;2.17;;;1.10;;
43086;SDS011;28708;52.224;6.924;2022-12-29T01:33:54;1.83;;;1.10;;
43086;SDS011;28708;52.224;6.924;2022-12-29T01:36:21;2.23;;;0.80;;
43086;SDS011;28708;52.224;6.924;2022-12-29T01:38:47;2.80;;;0.90;;
43086;SDS011;28708;52.224;6.924;2022-12-29T01:41:13;2.20;;;0.80;;
43086;SDS011;28708;52.224;6.924;2022-12-29T01:43:41;2.77;;;0.80;;
43086;SDS011;28708;52.224;6.924;2022-12-29T01:46:11;0.57;;;0.50;;
43086;SDS011;28708;52.224;6.924;2022-12-29T01:48:45;2.03;;;0.80;;
43086;SDS011;28708;52.224;6.924;2022-12-29T01:51:14;1.50;;;0.70;;
43086;SDS011;28708;52.224;6.924;2022-12-29T01:53:41;1.50;;;0.80;;
43086;SDS011;28708;52.224;6.924;2022-12-29T01:56:08;1.93;;;0.77;;
43086;SDS011;28708;52.224;6.924;2022-12-29T01:58:39;1.25;;;0.90;;
43086;SDS011;28708;52.224;6.924;2022-12-29T02:01:09;1.30;;;0.90;;
43086;SDS011;28708;52.224;6.924;2022-12-29T02:03:35;2.27;;;1.10;;
43086;SDS011;28708;52.224;6.924;2022-12-29T02:06:03;3.43;;;1.20;;
43086;SDS011;28708;52.224;6.924;2022-12-29T02:08:29;1.73;;;1.20;;
43086;SDS011;28708;52.224;6.924;2022-12-29T02:10:56;1.37;;;1.03;;
43086;SDS011;28708;52.224;6.924;2022-12-29T02:13:26;1.83;;;1.20;;
43086;SDS011;28708;52.224;6.924;2022-12-29T02:24:33;2.97;;;1.70;;
43086;SDS011;28708;52.224;6.924;2022-12-29T02:33:22;2.70;;;1.67;;
43086;SDS011;28708;52.224;6.924;2022-12-29T02:41:33;3.07;;;1.80;;
43086;SDS011;28708;52.224;6.924;2022-12-29T02:44:15;2.73;;;1.60;;
43086;SDS011;28708;52.224;6.924;2022-12-29T02:46:56;6.27;;;1.47;;
43086;SDS011;28708;52.224;6.924;2022-12-29T02:52:08;3.00;;;1.30;;
43086;SDS011;28708;52.224;6.924;2022-12-29T02:54:39;3.47;;;1.43;;
43086;SDS011;28708;52.224;6.924;2022-12-29T02:59:48;3.63;;;1.17;;
43086;SDS011;28708;52.224;6.924;2022-12-29T03:02:28;2.30;;;1.30;;
43086;SDS011;28708;52.224;6.924;2022-12-29T03:07:57;2.40;;;1.27;;
43086;SDS011;28708;52.224;6.924;2022-12-29T03:17:28;4.97;;;0.90;;
43086;SDS011;28708;52.224;6.924;2022-12-29T03:20:08;1.27;;;0.80;;
43086;SDS011;28708;52.224;6.924;2022-12-29T03:22:40;2.20;;;0.90;;
43086;SDS011;28708;52.224;6.924;2022-12-29T03:27:51;2.73;;;0.90;;
43086;SDS011;28708;52.224;6.924;2022-12-29T03:30:21;2.47;;;1.10;;
43086;SDS011;28708;52.224;6.924;2022-12-29T03:32:49;3.20;;;1.03;;
43086;SDS011;28708;52.224;6.924;2022-12-29T03:35:20;2.77;;;0.77;;
43086;SDS011;28708;52.224;6.924;2022-12-29T03:37:50;2.77;;;0.70;;
43086;SDS011;28708;52.224;6.924;2022-12-29T03:40:23;3.53;;;1.20;;
43086;SDS011;28708;52.224;6.924;2022-12-29T03:42:51;2.90;;;0.90;;
43086;SDS011;28708;52.224;6.924;2022-12-29T03:45:18;1.60;;;0.80;;
43086;SDS011;28708;52.224;6.924;2022-12-29T03:47:45;2.97;;;0.90;;
43086;SDS011;28708;52.224;6.924;2022-12-29T03:50:12;3.30;;;0.80;;
43086;SDS011;28708;52.224;6.924;2022-12-29T03:52:39;1.77;;;0.83;;
43086;SDS011;28708;52.224;6.924;2022-12-29T03:55:05;3.37;;;0.97;;
43086;SDS011;28708;52.224;6.924;2022-12-29T03:57:31;4.03;;;0.97;;
43086;SDS011;28708;52.224;6.924;2022-12-29T04:00:04;6.37;;;1.10;;
43086;SDS011;28708;52.224;6.924;2022-12-29T04:02:40;2.53;;;0.80;;
43086;SDS011;28708;52.224;6.924;2022-12-29T04:05:07;2.80;;;0.93;;
43086;SDS011;28708;52.224;6.924;2022-12-29T04:07:33;1.23;;;0.70;;
43086;SDS011;28708;52.224;6.924;2022-12-29T04:10:01;3.33;;;0.90;;
43086;SDS011;28708;52.224;6.924;2022-12-29T04:12:27;4.27;;;0.87;;
43086;SDS011;28708;52.224;6.924;2022-12-29T04:14:53;4.47;;;0.93;;
43086;SDS011;28708;52.224;6.924;2022-12-29T04:17:18;2.73;;;0.90;;
43086;SDS011;28708;52.224;6.924;2022-12-29T04:19:46;2.53;;;0.70;;
43086;SDS011;28708;52.224;6.924;2022-12-29T04:22:13;5.27;;;0.97;;
43086;SDS011;28708;52.224;6.924;2022-12-29T04:24:39;5.13;;;0.70;;
43086;SDS011;28708;52.224;6.924;2022-12-29T04:27:04;3.43;;;0.80;;
43086;SDS011;28708;52.224;6.924;2022-12-29T04:29:53;2.00;;;0.73;;
43086;SDS011;28708;52.224;6.924;2022-12-29T04:32:41;4.70;;;1.07;;
43086;SDS011;28708;52.224;6.924;2022-12-29T04:35:06;1.87;;;0.60;;
43086;SDS011;28708;52.224;6.924;2022-12-29T04:37:32;3.80;;;0.90;;
43086;SDS011;28708;52.224;6.924;2022-12-29T04:39:58;5.83;;;1.00;;
43086;SDS011;28708;52.224;6.924;2022-12-29T04:42:24;3.97;;;0.83;;
43086;SDS011;28708;52.224;6.924;2022-12-29T04:44:50;2.83;;;0.80;;
43086;SDS011;28708;52.224;6.924;2022-12-29T04:47:42;3.73;;;1.07;;
43086;SDS011;28708;52.224;6.924;2022-12-29T04:50:40;4.60;;;1.33;;
43086;SDS011;28708;52.224;6.924;2022-12-29T04:53:14;4.80;;;0.83;;
43086;SDS011;28708;52.224;6.924;2022-12-29T04:55:42;5.13;;;0.93;;
43086;SDS011;28708;52.224;6.924;2022-12-29T04:58:08;4.00;;;0.70;;
43086;SDS011;28708;52.224;6.924;2022-12-29T05:00:34;5.80;;;1.10;;
43086;SDS011;28708;52.224;6.924;2022-12-29T05:03:00;4.17;;;1.00;;
43086;SDS011;28708;52.224;6.924;2022-12-29T05:05:27;3.67;;;1.13;;
43086;SDS011;28708;52.224;6.924;2022-12-29T05:07:52;3.07;;;0.90;;
43086;SDS011;28708;52.224;6.924;2022-12-29T05:10:18;4.43;;;0.90;;
43086;SDS011;28708;52.224;6.924;2022-12-29T05:12:44;4.50;;;0.90;;
43086;SDS011;28708;52.224;6.924;2022-12-29T05:15:11;2.77;;;0.90;;
43086;SDS011;28708;52.224;6.924;2022-12-29T05:17:37;4.40;;;0.80;;
43086;SDS011;28708;52.224;6.924;2022-12-29T05:20:05;4.63;;;1.00;;
43086;SDS011;28708;52.224;6.924;2022-12-29T05:22:32;5.03;;;1.00;;
43086;SDS011;28708;52.224;6.924;2022-12-29T05:24:58;4.87;;;1.33;;
43086;SDS011;28708;52.224;6.924;2022-12-29T05:27:23;6.07;;;1.20;;
43086;SDS011;28708;52.224;6.924;2022-12-29T05:30:18;8.00;;;1.63;;
43086;SDS011;28708;52.224;6.924;2022-12-29T05:32:44;7.83;;;1.30;;
43086;SDS011;28708;52.224;6.924;2022-12-29T05:35:10;2.87;;;1.13;;
43086;SDS011;28708;52.224;6.924;2022-12-29T05:37:36;5.43;;;1.30;;
43086;SDS011;28708;52.224;6.924;2022-12-29T05:40:02;3.60;;;1.10;;
43086;SDS011;28708;52.224;6.924;2022-12-29T05:42:28;3.93;;;0.93;;
43086;SDS011;28708;52.224;6.924;2022-12-29T05:45:29;4.67;;;0.80;;
43086;SDS011;28708;52.224;6.924;2022-12-29T05:48:18;5.47;;;1.10;;
43086;SDS011;28708;52.224;6.924;2022-12-29T05:51:02;7.77;;;1.13;;
43086;SDS011;28708;52.224;6.924;2022-12-29T05:53:38;4.30;;;1.10;;
43086;SDS011;28708;52.224;6.924;2022-12-29T05:56:04;7.30;;;1.23;;
43086;SDS011;28708;52.224;6.924;2022-12-29T05:58:31;4.40;;;0.90;;
43086;SDS011;28708;52.224;6.924;2022-12-29T06:00:56;7.17;;;1.93;;
43086;SDS011;28708;52.224;6.924;2022-12-29T06:03:22;3.23;;;1.07;;
43086;SDS011;28708;52.224;6.924;2022-12-29T06:05:48;3.53;;;0.93;;
43086;SDS011;28708;52.224;6.924;2022-12-29T06:08:15;3.23;;;0.90;;
43086;SDS011;28708;52.224;6.924;2022-12-29T06:10:40;5.10;;;0.70;;
43086;SDS011;28708;52.224;6.924;2022-12-29T06:13:07;5.70;;;0.90;;
43086;SDS011;28708;52.224;6.924;2022-12-29T06:15:40;4.90;;;1.10;;
43086;SDS011;28708;52.224;6.924;2022-12-29T06:18:07;6.27;;;1.10;;
43086;SDS011;28708;52.224;6.924;2022-12-29T06:20:33;4.53;;;0.97;;
43086;SDS011;28708;52.224;6.924;2022-12-29T06:23:01;3.37;;;0.80;;
43086;SDS011;28708;52.224;6.924;2022-12-29T06:25:28;4.50;;;0.90;;
43086;SDS011;28708;52.224;6.924;2022-12-29T06:27:55;6.10;;;1.23;;
43086;SDS011;28708;52.224;6.924;2022-12-29T06:30:21;4.30;;;1.23;;
43086;SDS011;28708;52.224;6.924;2022-12-29T06:32:47;8.07;;;1.97;;
43086;SDS011;28708;52.224;6.924;2022-12-29T06:35:13;9.23;;;1.60;;
43086;SDS011;28708;52.224;6.924;2022-12-29T06:37:43;8.50;;;1.73;;
43086;SDS011;28708;52.224;6.924;2022-12-29T06:40:09;6.27;;;1.27;;
43086;SDS011;28708;52.224;6.924;2022-12-29T06:42:55;7.30;;;1.63;;
43086;SDS011;28708;52.224;6.924;2022-12-29T06:45:43;5.07;;;1.37;;
43086;SDS011;28708;52.224;6.924;2022-12-29T06:48:09;12.33;;;2.20;;
43086;SDS011;28708;52.224;6.924;2022-12-29T06:50:34;11.07;;;1.60;;
43086;SDS011;28708;52.224;6.924;2022-12-29T06:53:00;10.93;;;1.57;;
43086;SDS011;28708;52.224;6.924;2022-12-29T06:55:26;8.50;;;1.30;;
43086;SDS011;28708;52.224;6.924;2022-12-29T06:57:56;12.17;;;1.83;;
43086;SDS011;28708;52.224;6.924;2022-12-29T07:00:23;9.25;;;1.60;;
43086;SDS011;28708;52.224;6.924;2022-12-29T07:02:49;9.07;;;1.70;;
43086;SDS011;28708;52.224;6.924;2022-12-29T07:05:15;7.23;;;1.43;;
43086;SDS011;28708;52.224;6.924;2022-12-29T07:07:41;10.20;;;1.80;;
43086;SDS011;28708;52.224;6.924;2022-12-29T07:10:06;9.37;;;1.73;;
43086;SDS011;28708;52.224;6.924;2022-12-29T07:12:32;11.73;;;1.73;;
43086;SDS011;28708;52.224;6.924;2022-12-29T07:14:58;12.30;;;2.20;;
43086;SDS011;28708;52.224;6.924;2022-12-29T07:17:23;10.83;;;1.50;;
43086;SDS011;28708;52.224;6.924;2022-12-29T07:19:49;10.87;;;2.00;;
43086;SDS011;28708;52.224;6.924;2022-12-29T07:22:15;8.03;;;1.30;;
43086;SDS011;28708;52.224;6.924;2022-12-29T07:24:40;15.67;;;2.00;;
43086;SDS011;28708;52.224;6.924;2022-12-29T07:27:08;11.13;;;1.97;;
43086;SDS011;28708;52.224;6.924;2022-12-29T07:29:33;9.23;;;1.63;;
43086;SDS011;28708;52.224;6.924;2022-12-29T07:32:01;8.03;;;1.50;;
43086;SDS011;28708;52.224;6.924;2022-12-29T07:34:27;10.80;;;1.47;;
43086;SDS011;28708;52.224;6.924;2022-12-29T07:36:52;9.00;;;1.73;;
43086;SDS011;28708;52.224;6.924;2022-12-29T07:39:18;6.90;;;1.40;;
43086;SDS011;28708;52.224;6.924;2022-12-29T07:41:43;7.37;;;1.70;;
43086;SDS011;28708;52.224;6.924;2022-12-29T07:44:15;7.27;;;1.47;;
43086;SDS011;28708;52.224;6.924;2022-12-29T07:47:10;10.07;;;2.00;;
43086;SDS011;28708;52.224;6.924;2022-12-29T07:49:35;7.17;;;1.40;;
43086;SDS011;28708;52.224;6.924;2022-12-29T07:52:01;6.73;;;1.30;;
43086;SDS011;28708;52.224;6.924;2022-12-29T07:54:27;6.57;;;1.40;;
43086;SDS011;28708;52.224;6.924;2022-12-29T07:56:52;6.30;;;1.40;;
43086;SDS011;28708;52.224;6.924;2022-12-29T07:59:19;10.73;;;1.57;;
43086;SDS011;28708;52.224;6.924;2022-12-29T08:01:45;13.50;;;2.23;;
43086;SDS011;28708;52.224;6.924;2022-12-29T08:04:10;10.80;;;1.53;;
43086;SDS011;28708;52.224;6.924;2022-12-29T08:06:36;11.23;;;1.67;;
43086;SDS011;28708;52.224;6.924;2022-12-29T08:09:03;12.47;;;2.70;;
43086;SDS011;28708;52.224;6.924;2022-12-29T08:11:28;9.33;;;1.57;;
43086;SDS011;28708;52.224;6.924;2022-12-29T08:13:54;5.53;;;1.23;;
43086;SDS011;28708;52.224;6.924;2022-12-29T08:16:20;12.13;;;2.07;;
43086;SDS011;28708;52.224;6.924;2022-12-29T08:18:46;10.20;;;1.90;;
43086;SDS011;28708;52.224;6.924;2022-12-29T08:21:11;13.10;;;1.93;;
43086;SDS011;28708;52.224;6.924;2022-12-29T08:23:37;13.40;;;2.40;;
43086;SDS011;28708;52.224;6.924;2022-12-29T08:26:03;13.20;;;2.20;;
43086;SDS011;28708;52.224;6.924;2022-12-29T08:28:30;6.70;;;1.40;;
43086;SDS011;28708;52.224;6.924;2022-12-29T08:30:57;8.73;;;1.37;;
43086;SDS011;28708;52.224;6.924;2022-12-29T08:33:24;10.70;;;1.70;;
43086;SDS011;28708;52.224;6.924;2022-12-29T08:35:50;4.97;;;1.27;;
43086;SDS011;28708;52.224;6.924;2022-12-29T08:38:16;5.77;;;1.30;;
43086;SDS011;28708;52.224;6.924;2022-12-29T08:40:42;11.57;;;1.97;;
43086;SDS011;28708;52.224;6.924;2022-12-29T08:43:08;9.00;;;1.90;;
43086;SDS011;28708;52.224;6.924;2022-12-29T08:45:34;11.47;;;1.63;;
43086;SDS011;28708;52.224;6.924;2022-12-29T08:48:00;5.13;;;0.90;;
43086;SDS011;28708;52.224;6.924;2022-12-29T08:50:25;8.17;;;1.37;;
43086;SDS011;28708;52.224;6.924;2022-12-29T08:52:51;7.57;;;1.50;;
43086;SDS011;28708;52.224;6.924;2022-12-29T08:55:17;9.00;;;1.33;;
43086;SDS011;28708;52.224;6.924;2022-12-29T08:57:42;7.27;;;1.60;;
43086;SDS011;28708;52.224;6.924;2022-12-29T09:00:15;9.10;;;1.67;;
43086;SDS011;28708;52.224;6.924;2022-12-29T09:02:40;9.00;;;1.67;;
43086;SDS011;28708;52.224;6.924;2022-12-29T09:05:06;12.50;;;3.00;;
43086;SDS011;28708;52.224;6.924;2022-12-29T09:07:32;13.97;;;2.43;;
43086;SDS011;28708;52.224;6.924;2022-12-29T09:09:58;12.37;;;2.60;;
43086;SDS011;28708;52.224;6.924;2022-12-29T09:12:23;9.27;;;2.13;;
43086;SDS011;28708;52.224;6.924;2022-12-29T09:14:49;11.27;;;2.23;;
43086;SDS011;28708;52.224;6.924;2022-12-29T09:17:15;9.53;;;2.10;;
43086;SDS011;28708;52.224;6.924;2022-12-29T09:19:59;12.37;;;2.50;;
43086;SDS011;28708;52.224;6.924;2022-12-29T09:22:24;7.97;;;1.87;;
43086;SDS011;28708;52.224;6.924;2022-12-29T09:24:50;13.83;;;2.30;;
43086;SDS011;28708;52.224;6.924;2022-12-29T09:27:17;13.50;;;2.00;;
43086;SDS011;28708;52.224;6.924;2022-12-29T09:29:42;11.97;;;2.17;;
43086;SDS011;28708;52.224;6.924;2022-12-29T09:32:08;15.23;;;2.30;;
43086;SDS011;28708;52.224;6.924;2022-12-29T09:34:34;13.17;;;2.23;;
43086;SDS011;28708;52.224;6.924;2022-12-29T09:36:59;7.83;;;1.27;;
43086;SDS011;28708;52.224;6.924;2022-12-29T09:39:25;15.27;;;2.27;;
43086;SDS011;28708;52.224;6.924;2022-12-29T09:46:59;15.00;;;2.47;;
43086;SDS011;28708;52.224;6.924;2022-12-29T09:49:30;12.20;;;1.93;;
43086;SDS011;28708;52.224;6.924;2022-12-29T09:52:11;12.77;;;1.80;;
43086;SDS011;28708;52.224;6.924;2022-12-29T09:54:46;9.70;;;1.80;;
43086;SDS011;28708;52.224;6.924;2022-12-29T10:00:12;11.77;;;2.13;;
43086;SDS011;28708;52.224;6.924;2022-12-29T10:06:10;9.30;;;1.80;;
43086;SDS011;28708;52.224;6.924;2022-12-29T10:08:36;10.37;;;1.83;;
43086;SDS011;28708;52.224;6.924;2022-12-29T10:16:46;12.27;;;1.90;;
43086;SDS011;28708;52.224;6.924;2022-12-29T10:25:12;14.17;;;2.10;;
43086;SDS011;28708;52.224;6.924;2022-12-29T10:27:42;10.60;;;1.77;;
43086;SDS011;28708;52.224;6.924;2022-12-29T10:30:12;10.93;;;1.67;;
43086;SDS011;28708;52.224;6.924;2022-12-29T10:32:40;13.17;;;2.17;;
43086;SDS011;28708;52.224;6.924;2022-12-29T10:35:18;13.97;;;2.13;;
43086;SDS011;28708;52.224;6.924;2022-12-29T10:40:23;14.63;;;2.53;;
43086;SDS011;28708;52.224;6.924;2022-12-29T10:43:23;14.13;;;2.40;;
43086;SDS011;28708;52.224;6.924;2022-12-29T10:45:54;10.07;;;1.50;;
43086;SDS011;28708;52.224;6.924;2022-12-29T10:48:27;9.30;;;2.13;;
43086;SDS011;28708;52.224;6.924;2022-12-29T10:50:56;9.77;;;2.27;;
43086;SDS011;28708;52.224;6.924;2022-12-29T10:53:30;11.50;;;2.13;;
43086;SDS011;28708;52.224;6.924;2022-12-29T10:56:02;9.47;;;2.10;;
43086;SDS011;28708;52.224;6.924;2022-12-29T10:58:34;12.93;;;2.63;;
43086;SDS011;28708;52.224;6.924;2022-12-29T11:01:01;12.10;;;1.73;;
43086;SDS011;28708;52.224;6.924;2022-12-29T11:03:44;13.30;;;2.27;;
43086;SDS011;28708;52.224;6.924;2022-12-29T11:06:28;10.87;;;2.43;;
43086;SDS011;28708;52.224;6.924;2022-12-29T11:08:57;10.90;;;1.73;;
43086;SDS011;28708;52.224;6.924;2022-12-29T11:11:32;11.83;;;1.80;;
43086;SDS011;28708;52.224;6.924;2022-12-29T11:14:07;14.30;;;1.77;;
43086;SDS011;28708;52.224;6.924;2022-12-29T11:16:56;10.90;;;1.80;;
43086;SDS011;28708;52.224;6.924;2022-12-29T11:19:27;8.73;;;1.58;;
43086;SDS011;28708;52.224;6.924;2022-12-29T11:22:14;10.13;;;2.10;;
43086;SDS011;28708;52.224;6.924;2022-12-29T11:24:48;8.20;;;1.77;;
43086;SDS011;28708;52.224;6.924;2022-12-29T11:27:16;10.50;;;2.23;;
43086;SDS011;28708;52.224;6.924;2022-12-29T11:29:48;10.23;;;1.73;;
43086;SDS011;28708;52.224;6.924;2022-12-29T11:32:19;10.43;;;2.50;;
43086;SDS011;28708;52.224;6.924;2022-12-29T11:34:46;11.30;;;1.90;;
43086;SDS011;28708;52.224;6.924;2022-12-29T11:37:28;9.77;;;1.97;;
43086;SDS011;28708;52.224;6.924;2022-12-29T11:40:03;10.57;;;1.83;;
43086;SDS011;28708;52.224;6.924;2022-12-29T11:42:37;11.97;;;2.30;;
43086;SDS011;28708;52.224;6.924;2022-12-29T11:45:15;6.80;;;1.17;;
43086;SDS011;28708;52.224;6.924;2022-12-29T11:47:59;10.73;;;1.70;;
43086;SDS011;28708;52.224;6.924;2022-12-29T11:50:26;12.13;;;1.80;;
43086;SDS011;28708;52.224;6.924;2022-12-29T11:53:02;11.80;;;2.00;;
43086;SDS011;28708;52.224;6.924;2022-12-29T11:55:58;12.02;;;1.77;;
43086;SDS011;28708;52.224;6.924;2022-12-29T11:58:30;8.93;;;1.73;;
43086;SDS011;28708;52.224;6.924;2022-12-29T12:01:00;10.97;;;1.83;;
43086;SDS011;28708;52.224;6.924;2022-12-29T12:03:28;13.03;;;2.77;;
43086;SDS011;28708;52.224;6.924;2022-12-29T12:05:58;9.33;;;2.07;;
43086;SDS011;28708;52.224;6.924;2022-12-29T12:14:17;12.90;;;2.40;;
43086;SDS011;28708;52.224;6.924;2022-12-29T12:17:15;11.63;;;2.67;;
43086;SDS011;28708;52.224;6.924;2022-12-29T12:19:48;11.60;;;2.10;;
43086;SDS011;28708;52.224;6.924;2022-12-29T12:22:36;12.30;;;2.40;;
43086;SDS011;28708;52.224;6.924;2022-12-29T12:27:51;12.83;;;2.50;;
43086;SDS011;28708;52.224;6.924;2022-12-29T12:30:21;12.73;;;3.17;;
43086;SDS011;28708;52.224;6.924;2022-12-29T12:35:32;13.77;;;2.70;;
43086;SDS011;28708;52.224;6.924;2022-12-29T12:38:16;14.77;;;2.93;;
43086;SDS011;28708;52.224;6.924;2022-12-29T12:57:05;18.10;;;6.63;;
43086;SDS011;28708;52.224;6.924;2022-12-29T13:00:12;15.53;;;3.97;;
43086;SDS011;28708;52.224;6.924;2022-12-29T13:11:08;18.23;;;3.50;;
43086;SDS011;28708;52.224;6.924;2022-12-29T13:14:02;12.60;;;2.87;;
43086;SDS011;28708;52.224;6.924;2022-12-29T13:16:56;14.13;;;2.70;;
43086;SDS011;28708;52.224;6.924;2022-12-29T13:19:34;13.03;;;2.70;;
43086;SDS011;28708;52.224;6.924;2022-12-29T13:24:52;14.60;;;3.10;;
43086;SDS011;28708;52.224;6.924;2022-12-29T13:27:44;10.93;;;2.73;;
43086;SDS011;28708;52.224;6.924;2022-12-29T13:34:00;16.23;;;3.57;;
43086;SDS011;28708;52.224;6.924;2022-12-29T13:36:40;11.97;;;3.20;;
43086;SDS011;28708;52.224;6.924;2022-12-29T13:39:15;13.80;;;2.93;;
43086;SDS011;28708;52.224;6.924;2022-12-29T13:41:51;11.90;;;2.70;;
43086;SDS011;28708;52.224;6.924;2022-12-29T13:44:27;16.83;;;3.73;;
43086;SDS011;28708;52.224;6.924;2022-12-29T13:47:00;15.95;;;2.90;;
43086;SDS011;28708;52.224;6.924;2022-12-29T13:49:31;12.60;;;3.03;;
43086;SDS011;28708;52.224;6.924;2022-12-29T13:52:09;17.30;;;3.00;;
43086;SDS011;28708;52.224;6.924;2022-12-29T13:57:41;13.53;;;3.17;;
43086;SDS011;28708;52.224;6.924;2022-12-29T14:00:25;19.30;;;3.20;;
43086;SDS011;28708;52.224;6.924;2022-12-29T14:05:30;32.27;;;5.43;;
43086;SDS011;28708;52.224;6.924;2022-12-29T14:07:57;16.43;;;3.60;;
43086;SDS011;28708;52.224;6.924;2022-12-29T14:10:35;14.57;;;3.30;;
43086;SDS011;28708;52.224;6.924;2022-12-29T14:13:13;9.57;;;2.50;;
43086;SDS011;28708;52.224;6.924;2022-12-29T14:15:44;15.23;;;3.13;;
43086;SDS011;28708;52.224;6.924;2022-12-29T14:18:19;15.53;;;3.50;;
43086;SDS011;28708;52.224;6.924;2022-12-29T14:23:24;16.30;;;3.60;;
43086;SDS011;28708;52.224;6.924;2022-12-29T14:28:33;20.13;;;4.10;;
43086;SDS011;28708;52.224;6.924;2022-12-29T14:30:59;8.17;;;2.93;;
43086;SDS011;28708;52.224;6.924;2022-12-29T14:33:30;12.73;;;3.37;;
43086;SDS011;28708;52.224;6.924;2022-12-29T14:36:18;11.93;;;3.30;;
43086;SDS011;28708;52.224;6.924;2022-12-29T14:38:46;11.37;;;2.70;;
43086;SDS011;28708;52.224;6.924;2022-12-29T14:43:56;11.80;;;2.80;;
43086;SDS011;28708;52.224;6.924;2022-12-29T14:46:24;16.03;;;3.30;;
43086;SDS011;28708;52.224;6.924;2022-12-29T14:49:08;13.43;;;3.30;;
43086;SDS011;28708;52.224;6.924;2022-12-29T14:51:41;16.97;;;3.00;;
43086;SDS011;28708;52.224;6.924;2022-12-29T14:54:34;13.73;;;2.93;;
43086;SDS011;28708;52.224;6.924;2022-12-29T14:57:06;17.13;;;2.90;;
43086;SDS011;28708;52.224;6.924;2022-12-29T14:59:35;20.27;;;3.60;;
43086;SDS011;28708;52.224;6.924;2022-12-29T15:02:03;18.00;;;3.93;;
43086;SDS011;28708;52.224;6.924;2022-12-29T15:04:37;16.43;;;3.80;;
43086;SDS011;28708;52.224;6.924;2022-12-29T15:07:07;19.37;;;3.10;;
43086;SDS011;28708;52.224;6.924;2022-12-29T15:14:54;13.90;;;3.10;;
43086;SDS011;28708;52.224;6.924;2022-12-29T15:17:29;15.03;;;2.87;;
43086;SDS011;28708;52.224;6.924;2022-12-29T15:19:57;16.17;;;2.80;;
43086;SDS011;28708;52.224;6.924;2022-12-29T15:22:24;14.40;;;2.93;;
43086;SDS011;28708;52.224;6.924;2022-12-29T15:24:51;9.97;;;2.30;;
43086;SDS011;28708;52.224;6.924;2022-12-29T15:27:19;11.23;;;2.30;;
43086;SDS011;28708;52.224;6.924;2022-12-29T15:30:01;9.13;;;1.80;;
43086;SDS011;28708;52.224;6.924;2022-12-29T15:32:29;12.30;;;2.73;;
43086;SDS011;28708;52.224;6.924;2022-12-29T15:35:28;12.57;;;2.10;;
43086;SDS011;28708;52.224;6.924;2022-12-29T15:38:06;10.43;;;2.03;;
43086;SDS011;28708;52.224;6.924;2022-12-29T15:40:45;7.53;;;1.57;;
43086;SDS011;28708;52.224;6.924;2022-12-29T15:43:21;8.50;;;1.90;;
43086;SDS011;28708;52.224;6.924;2022-12-29T15:46:10;8.53;;;2.00;;
43086;SDS011;28708;52.224;6.924;2022-12-29T15:48:37;9.20;;;2.53;;
43086;SDS011;28708;52.224;6.924;2022-12-29T15:51:09;7.73;;;2.20;;
43086;SDS011;28708;52.224;6.924;2022-12-29T15:53:52;7.47;;;1.70;;
43086;SDS011;28708;52.224;6.924;2022-12-29T15:56:18;7.30;;;2.00;;
43086;SDS011;28708;52.224;6.924;2022-12-29T15:58:45;9.30;;;3.10;;
43086;SDS011;28708;52.224;6.924;2022-12-29T16:03:44;10.73;;;3.80;;
43086;SDS011;28708;52.224;6.924;2022-12-29T16:09:10;13.73;;;2.90;;
43086;SDS011;28708;52.224;6.924;2022-12-29T16:12:13;12.32;;;2.78;;
43086;SDS011;28708;52.224;6.924;2022-12-29T16:14:46;12.47;;;4.00;;
43086;SDS011;28708;52.224;6.924;2022-12-29T16:17:16;12.67;;;2.93;;
43086;SDS011;28708;52.224;6.924;2022-12-29T16:19:50;15.50;;;3.30;;
43086;SDS011;28708;52.224;6.924;2022-12-29T16:22:29;15.23;;;3.30;;
43086;SDS011;28708;52.224;6.924;2022-12-29T16:24:58;19.00;;;3.40;;
43086;SDS011;28708;52.224;6.924;2022-12-29T16:27:36;12.90;;;2.88;;
43086;SDS011;28708;52.224;6.924;2022-12-29T16:30:27;12.83;;;3.33;;
43086;SDS011;28708;52.224;6.924;2022-12-29T16:32:53;15.20;;;2.80;;
43086;SDS011;28708;52.224;6.924;2022-12-29T16:35:45;10.23;;;3.00;;
43086;SDS011;28708;52.224;6.924;2022-12-29T16:38:15;9.60;;;2.53;;
43086;SDS011;28708;52.224;6.924;2022-12-29T16:43:22;13.03;;;3.83;;
43086;SDS011;28708;52.224;6.924;2022-12-29T16:50:41;15.70;;;4.20;;
43086;SDS011;28708;52.224;6.924;2022-12-29T16:53:19;13.13;;;3.53;;
43086;SDS011;28708;52.224;6.924;2022-12-29T16:55:48;14.87;;;3.33;;
43086;SDS011;28708;52.224;6.924;2022-12-29T16:58:18;10.67;;;3.80;;
43086;SDS011;28708;52.224;6.924;2022-12-29T17:00:51;11.23;;;3.03;;
43086;SDS011;28708;52.224;6.924;2022-12-29T17:03:23;12.93;;;3.40;;
43086;SDS011;28708;52.224;6.924;2022-12-29T17:05:57;13.70;;;3.77;;
43086;SDS011;28708;52.224;6.924;2022-12-29T17:08:23;18.40;;;3.33;;
43086;SDS011;28708;52.224;6.924;2022-12-29T17:10:53;13.00;;;3.30;;
43086;SDS011;28708;52.224;6.924;2022-12-29T17:13:39;11.27;;;2.55;;
43086;SDS011;28708;52.224;6.924;2022-12-29T17:16:05;12.23;;;3.23;;
43086;SDS011;28708;52.224;6.924;2022-12-29T17:18:34;18.00;;;3.37;;
43086;SDS011;28708;52.224;6.924;2022-12-29T17:21:00;12.07;;;2.53;;
43086;SDS011;28708;52.224;6.924;2022-12-29T17:23:26;10.63;;;2.43;;
43086;SDS011;28708;52.224;6.924;2022-12-29T17:25:52;12.60;;;3.00;;
43086;SDS011;28708;52.224;6.924;2022-12-29T17:28:20;12.73;;;2.57;;